Latest Weather Observations for Double Island Point

IDQ60901

Issued at 10:11 am EST Thursday 1 October 2020 (issued every 10 minutes, with the page automatically refreshed every 10 minutes)

About weather observations | Map of Brisbane area stations | Latest observations for Brisbane area | Other Formats
Station Details ID: 040068 Name: DOUBLE ISLAND POINT LIGHTHOUSE Lat: -25.93 Lon: 153.19 Height: 95.64 m
Data from the previous 72 hours. | See also: Recent months at Double Island Point
Date/Time
EST
Temp
°C
App
Temp
°C
Dew
Point
°C
Rel
Hum
%
Delta-T
°C
Wind Press
QNH
hPa
Press
MSL
hPa
Rain since
9am
mm
Dir  Spd
km/h
Gust
km/h
Spd
kts
Gust
kts
01/10:00am 24.0 23.2 15.0 57 5.4 NNW 13 20 7 11 1020.7 1020.4 0.0
01/09:30am 23.3 22.4 14.8 59 5.1 NNW 13 20 7 11 1020.8 1020.5 0.0
01/09:00am 22.5 21.4 14.4 60 4.8 NNW 13 24 7 13 1020.6 1020.3 0.2
01/08:30am 21.8 20.5 14.9 65 4.1 NNW 15 20 8 11 1020.8 1020.5 0.2
01/08:00am 19.9 18.3 13.8 68 3.5 NNW 15 20 8 11 1020.4 1020.1 0.2
01/07:30am 19.9 18.0 14.3 70 3.3 NNW 17 20 9 11 1020.2 1019.9 0.2
01/07:00am 19.6 17.6 14.0 70 3.2 NNW 17 20 9 11 1019.9 1019.6 0.2
01/06:30am 19.3 16.8 13.5 69 3.3 NNW 19 24 10 13 1019.7 1019.4 0.2
01/06:00am 18.9 16.1 13.1 69 3.3 NW 20 22 11 12 1019.5 1019.2 0.2
01/05:30am 18.3 15.6 13.0 71 3.0 NW 19 22 10 12 1019.1 1018.8 0.2
01/05:00am 18.3 15.6 13.0 71 3.0 NW 19 24 10 13 1018.7 1018.4 0.2
01/04:30am 18.3 15.7 13.2 72 2.9 NNW 19 24 10 13 1018.2 1017.9 0.2
01/04:00am 18.8 16.3 13.4 71 3.1 NW 19 22 10 12 1018.1 1017.8 0.2
01/03:30am 18.6 16.5 13.5 72 2.9 NW 17 20 9 11 1017.9 1017.6 0.2
01/03:00am 19.5 17.7 13.4 68 3.5 N 15 26 8 14 1017.8 1017.5 0.2
01/02:30am 19.8 18.1 12.6 63 4.1 N 13 24 7 13 1018.0 1017.7 0.2
01/02:00am 19.6 16.8 12.6 64 3.9 NNE 19 30 10 16 1018.1 1017.8 0.2
01/01:30am 19.4 18.1 11.2 59 4.5 N 9 20 5 11 1018.7 1018.4 0.2
01/01:00am 19.5 17.7 11.0 58 4.6 N 11 24 6 13 1019.0 1018.7 0.2
01/12:30am 19.6 15.4 11.1 58 4.7 NNE 24 30 13 16 1019.2 1018.9 0.2
01/12:00am 19.6 15.3 10.9 57 4.7 NNE 24 33 13 18 1019.5 1019.2 0.2
 
Date/Time
EST
Temp
°C
App
Temp
°C
Dew
Point
°C
Rel
Hum
%
Delta-T
°C
Wind Press
QNH
hPa
Press
MSL
hPa
Rain since
9am
mm
Dir  Spd
km/h
Gust
km/h
Spd
kts
Gust
kts
30/11:30pm 19.5 15.0 10.0 54 5.1 NNE 24 30 13 16 1019.9 1019.6 0.2
30/11:00pm 19.6 15.4 11.1 58 4.7 NNE 24 32 13 17 1020.2 1019.9 0.2
30/10:30pm 19.4 16.0 11.4 60 4.4 NNE 20 28 11 15 1020.3 1020.0 0.2
30/10:00pm 19.5 16.1 11.3 59 4.5 NNE 20 30 11 16 1020.2 1019.9 0.2
30/09:30pm 19.5 16.3 11.3 59 4.5 NNE 19 26 10 14 1020.3 1020.0 0.2
30/09:00pm 19.5 16.1 10.5 56 4.9 NNE 19 26 10 14 1020.5 1020.2 0.2
30/08:30pm 19.5 16.8 11.8 61 4.3 NE 17 24 9 13 1020.4 1020.1 0.2
30/08:00pm 19.6 16.9 11.6 60 4.4 NE 17 24 9 13 1020.1 1019.8 0.2
30/07:30pm 19.8 17.1 11.6 59 4.5 ENE 17 22 9 12 1019.8 1019.5 0.2
30/07:00pm 20.0 17.0 10.7 55 5.1 NE 17 24 9 13 1019.3 1019.0 0.2
30/06:30pm 19.9 16.6 9.5 51 5.5 ENE 17 24 9 13 1019.0 1018.7 0.2
30/06:00pm 20.1 15.9 9.9 52 5.5 ENE 22 30 12 16 1018.7 1018.4 0.2
30/05:30pm 20.3 16.9 10.4 53 5.4 ENE 19 24 10 13 1018.5 1018.2 0.2
30/05:00pm 20.5 17.3 10.0 51 5.7 NE 17 24 9 13 1018.5 1018.2 0.2
30/04:30pm 20.8 17.3 8.8 46 6.4 ENE 17 24 9 13 1018.6 1018.3 0.2
30/04:00pm 22.7 20.7 11.4 49 6.3 NE 13 22 7 12 1018.7 1018.4 0.2
30/03:30pm 22.4 19.6 11.5 50 6.1 NE 17 22 9 12 1018.7 1018.4 0.2
30/03:00pm 22.4 19.7 10.5 47 6.5 ENE 15 22 8 12 1018.5 1018.2 0.2
30/02:30pm 23.5 21.6 11.9 48 6.6 NE 13 22 7 12 1018.9 1018.6 0.2
30/02:00pm 24.7 23.4 13.6 50 6.5 NE 13 22 7 12 1019.3 1019.0 0.2
30/01:30pm 23.3 21.0 11.7 48 6.6 NE 15 24 8 13 1019.5 1019.2 0.2
30/01:00pm 22.4 20.1 12.9 55 5.4 NE 17 24 9 13 1019.8 1019.5 0.0
30/12:30pm 22.3 20.9 14.4 61 4.7 NE 15 24 8 13 1020.2 1019.9 0.0
30/12:00pm 24.3 22.8 13.2 50 6.4 NE 13 20 7 11 1020.7 1020.4 0.0
30/11:30am 24.6 23.0 12.9 48 6.8 NE 13 20 7 11 1021.1 1020.8 0.0
30/11:00am 23.7 21.4 13.0 51 6.2 NE 17 26 9 14 1021.2 1020.9 0.0
30/10:30am 23.7 21.4 14.1 55 5.7 ENE 19 26 10 14 1021.3 1021.0 0.0
30/10:00am 22.6 19.9 11.7 50 6.1 NE 17 28 9 15 1021.4 1021.2 0.0
30/09:30am 22.6 19.3 11.7 50 6.1 ENE 20 30 11 16 1021.6 1021.4 0.0
30/09:00am 22.2 18.9 11.6 51 5.9 ENE 20 28 11 15 1021.9 1021.7 0.0
30/08:30am 21.7 17.4 10.8 50 6.0 ENE 24 32 13 17 1022.0 1021.8 0.0
30/08:00am 21.8 18.2 10.0 47 6.4 ENE 19 26 10 14 1021.9 1021.7 0.0
30/07:30am 21.2 17.3 10.7 51 5.8 ENE 22 30 12 16 1021.9 1021.7 0.0
30/07:00am 20.6 16.7 10.7 53 5.4 ENE 22 30 12 16 1021.6 1021.4 0.0
30/06:30am 19.8 16.2 10.5 55 5.1 ENE 20 28 11 15 1021.4 1021.2 0.0
30/06:00am 19.6 15.0 10.9 57 4.7 E 26 32 14 17 1021.0 1020.7 0.0
30/05:30am 18.8 13.8 11.1 61 4.2 E 28 33 15 18 1020.3 1020.0 0.0
30/05:00am 18.9 13.9 11.0 60 4.3 E 28 32 15 17 1020.2 1019.9 0.0
30/04:30am 18.6 14.3 10.7 60 4.3 E 24 30 13 16 1020.0 1019.7 0.0
30/04:00am 18.8 13.9 10.1 57 4.7 E 26 32 14 17 1020.0 1019.7 0.0
30/03:30am 18.8 14.2 10.9 60 4.3 E 26 32 14 17 1020.0 1019.7 0.0
30/03:00am 18.6 14.4 9.9 57 4.6 E 22 30 12 16 1020.3 1020.0 0.0
30/02:30am 18.7 13.5 8.9 53 5.1 E 26 32 14 17 1020.5 1020.2 0.0
30/02:00am 18.7 13.1 8.9 53 5.1 ESE 28 32 15 17 1020.9 1020.6 0.0
30/01:30am 18.8 13.1 8.5 51 5.4 ESE 28 33 15 18 1021.0 1020.7 0.0
30/01:00am 19.0 12.8 9.5 54 5.0 ESE 32 37 17 20 1021.5 1021.3 0.0
30/12:30am 19.0 12.7 8.9 52 5.3 ESE 32 39 17 21 1021.8 1021.6 0.0
30/12:00am 19.1 13.0 9.9 55 4.9 ESE 32 35 17 19 1022.3 1022.1 0.0
 
Date/Time
EST
Temp
°C
App
Temp
°C
Dew
Point
°C
Rel
Hum
%
Delta-T
°C
Wind Press
QNH
hPa
Press
MSL
hPa
Rain since
9am
mm
Dir  Spd
km/h
Gust
km/h
Spd
kts
Gust
kts
29/11:30pm 19.2 12.9 9.1 52 5.3 ESE 32 41 17 22 1022.5 1022.3 0.0
29/11:00pm 19.2 13.4 10.7 58 4.6 ESE 32 43 17 23 1022.4 1022.2 0.0
29/10:30pm 19.2 12.3 8.8 51 5.5 ESE 35 44 19 24 1022.4 1022.2 0.0
29/10:00pm 19.3 12.4 10.3 56 4.8 ESE 37 44 20 24 1022.5 1022.3 0.0
29/09:30pm 19.2 12.8 10.7 58 4.6 ESE 35 43 19 23 1022.7 1022.5 0.0
29/09:00pm 19.2 12.8 10.7 58 4.6 ESE 35 43 19 23 1022.9 1022.7 0.0
29/08:30pm 19.2 13.0 9.4 53 5.2 ESE 32 37 17 20 1023.0 1022.8 0.0
29/08:00pm 19.3 13.3 10.0 55 5.0 ESE 32 39 17 21 1022.7 1022.5 0.0
29/07:30pm 19.2 12.6 9.9 55 5.0 ESE 35 44 19 24 1022.5 1022.3 0.0
29/07:00pm 19.1 12.2 10.4 57 4.7 SE 37 44 20 24 1022.2 1022.0 0.0
29/06:30pm 19.2 11.2 9.1 52 5.3 ESE 41 48 22 26 1021.8 1021.6 0.0
29/06:00pm 19.3 11.9 9.8 54 5.1 SE 39 46 21 25 1021.4 1021.2 0.0
29/05:30pm 19.3 11.3 8.9 51 5.5 SE 41 48 22 26 1021.0 1020.7 0.0
29/05:00pm 19.3 11.8 9.5 53 5.2 SE 39 46 21 25 1021.1 1020.8 0.0
29/04:30pm 19.6 12.4 10.6 56 4.9 SE 39 46 21 25 1020.9 1020.6 0.0
29/04:00pm 19.7 12.0 10.1 54 5.2 SE 41 50 22 27 1020.7 1020.4 0.0
29/03:30pm 20.1 12.7 11.3 57 4.9 SE 41 48 22 26 1020.5 1020.2 0.0
29/03:00pm 20.4 13.4 11.3 56 5.0 SE 39 44 21 24 1020.7 1020.4 0.0
29/02:30pm 20.5 13.9 11.2 55 5.1 SE 37 44 20 24 1021.2 1020.9 0.0
29/02:00pm 21.2 15.3 11.2 53 5.5 SE 33 41 18 22 1021.8 1021.6 0.0
29/01:30pm 20.7 14.8 11.3 55 5.2 SE 33 39 18 21 1022.3 1022.1 0.0
29/01:00pm 21.8 16.3 11.8 53 5.6 SE 32 39 17 21 1022.7 1022.5 0.0
29/12:30pm 21.3 14.7 11.3 53 5.6 SE 37 46 20 25 1022.7 1022.5 0.0
29/12:00pm 21.1 14.9 12.5 58 4.9 SE 37 46 20 25 1023.1 1022.9 0.0
29/11:30am 21.2 14.7 12.9 59 4.7 SE 39 46 21 25 1023.3 1023.1 0.0
29/11:00am 22.0 16.3 11.7 52 5.8 SE 33 39 18 21 1023.9 1023.7 0.0
29/10:30am 21.9 16.1 11.6 52 5.8 SE 33 41 18 22 1024.2 1024.0 0.0
29/10:00am 21.9 16.0 11.3 51 5.9 SE 33 41 18 22 1024.4 1024.1 0.0
29/09:30am 20.5 14.4 10.6 53 5.4 ESE 33 41 18 22 1024.5 1024.2 0.0
29/09:00am 21.4 14.7 11.1 52 5.7 ESE 37 46 20 25 1024.5 1024.2 0.0
29/08:30am 21.3 15.2 11.9 55 5.3 ESE 35 43 19 23 1024.0 1023.8 0.0
29/08:00am 20.9 14.9 12.1 57 4.9 ESE 35 43 19 23 1023.6 1023.4 0.0
29/07:30am 20.8 14.6 11.4 55 5.2 ESE 35 39 19 21 1023.4 1023.2 0.0
29/07:00am 19.7 12.7 11.2 58 4.7 ESE 39 46 21 25 1022.9 1022.7 0.0
29/06:30am 19.9 13.8 11.9 60 4.5 ESE 35 43 19 23 1022.5 1022.3 0.0
29/06:00am 19.4 13.2 11.4 60 4.4 ESE 35 43 19 23 1022.0 1021.8 0.0
29/05:30am 19.1 12.8 12.4 65 3.8 ESE 37 48 20 26 1021.8 1021.6 0.0
29/05:00am 19.2 12.3 12.7 66 3.7 ESE 41 48 22 26 1021.4 1021.2 0.0
29/04:30am 19.1 11.6 12.1 64 3.9 ESE 43 50 23 27 1021.3 1021.0 0.0
29/04:00am 19.1 12.4 12.4 65 3.7 SE 39 48 21 26 1021.2 1020.9 0.0
29/03:30am 19.2 12.7 12.9 67 3.6 SE 39 46 21 25 1021.1 1020.8 0.0
29/03:00am 19.3 13.1 12.8 66 3.7 ESE 37 44 20 24 1021.2 1020.9 0.0
29/02:30am 19.2 13.2 12.2 64 3.9 ESE 35 44 19 24 1021.4 1021.2 0.0
29/02:00am 19.2 12.6 12.7 66 3.7 ESE 39 46 21 25 1021.5 1021.3 0.0
29/01:30am 19.3 12.5 12.1 63 4.0 ESE 39 46 21 25 1021.9 1021.7 0.0
29/01:00am 19.0 13.0 12.0 64 3.9 ESE 35 44 19 24 1022.0 1021.8 0.0
29/12:30am 18.9 13.3 12.2 65 3.7 ESE 33 41 18 22 1022.6 1022.4 0.0
29/12:00am 19.0 12.1 11.6 62 4.1 ESE 39 46 21 25 1022.9 1022.7 0.0
 
Date/Time
EST
Temp
°C
App
Temp
°C
Dew
Point
°C
Rel
Hum
%
Delta-T
°C
Wind Press
QNH
hPa
Press
MSL
hPa
Rain since
9am
mm
Dir  Spd
km/h
Gust
km/h
Spd
kts
Gust
kts
28/11:30pm 19.1 12.1 12.4 65 3.8 ESE 41 48 22 26 1022.8 1022.6 0.0
28/11:00pm 19.1 12.3 11.9 63 4.0 ESE 39 46 21 25 1022.8 1022.6 0.0
28/10:30pm 19.2 12.2 12.5 65 3.8 ESE 41 50 22 27 1022.9 1022.7 0.0
28/10:00pm 19.4 12.0 12.4 64 3.9 ESE 43 50 23 27 1023.0 1022.8 0.0
28/09:30pm 19.2 11.8 12.5 65 3.8 ESE 43 48 23 26 1023.2 1023.0 0.0
28/09:00pm 19.3 12.4 12.8 66 3.7 ESE 41 50 22 27 1023.2 1023.0 0.0
28/08:30pm 19.1 11.8 13.3 69 3.3 ESE 44 54 24 29 1023.1 1022.9 0.0
28/08:00pm 19.1 12.2 13.9 72 3.0 SE 43 52 23 28 1023.1 1022.9 0.0
28/07:30pm 18.7 12.3 14.4 76 2.5 SE 41 48 22 26 1023.0 1022.8 0.0
28/07:00pm 18.7 11.8 14.0 74 2.7 SE 43 50 23 27 1022.7 1022.5 0.0
28/06:30pm 18.7 11.6 13.3 71 3.1 SE 43 46 23 25 1022.5 1022.3 0.0
28/06:00pm 18.8 12.1 14.5 76 2.5 SE 43 54 23 29 1021.8 1021.6 0.0
28/05:30pm 19.3 13.1 13.9 71 3.1 SE 39 44 21 24 1021.5 1021.3 0.0
28/05:00pm 19.4 13.5 13.6 69 3.3 SE 37 43 20 23 1021.3 1021.0 0.0
28/04:30pm 19.6 13.5 13.1 66 3.7 SE 37 43 20 23 1021.0 1020.7 0.0
28/04:00pm 20.1 13.7 12.1 60 4.5 SE 37 44 20 24 1020.8 1020.5 0.0
28/03:30pm 20.4 14.8 12.1 59 4.7 SE 33 41 18 22 1020.8 1020.5 0.0
28/03:00pm 20.6 15.4 11.5 56 5.0 SE 30 37 16 20 1021.0 1020.7 0.0
28/02:30pm 21.1 15.6 12.0 56 5.1 SSE 32 39 17 21 1021.1 1020.8 0.0
28/02:00pm 21.1 15.6 11.7 55 5.2 SSE 32 37 17 20 1021.4 1021.2 0.0
28/01:30pm 21.4 15.9 12.5 57 5.1 SSE 33 41 18 22 1021.7 1021.5 0.0
28/01:00pm 21.1 15.6 13.5 62 4.4 SSE 35 43 19 23 1022.0 1021.8 0.0
28/12:30pm 22.0 16.1 10.5 48 6.3 SSE 32 39 17 21 1022.6 1022.4 0.0
28/12:00pm 22.2 16.7 10.4 47 6.5 SSE 30 35 16 19 1022.9 1022.7 0.0
28/11:30am 22.1 16.7 9.6 45 6.8 SSE 28 33 15 18 1023.2 1023.0 0.0
28/11:00am 21.8 16.3 10.6 49 6.1 SSE 30 37 16 20 1023.6 1023.4 0.0
28/10:30am 21.6 15.4 9.5 46 6.5 SE 32 39 17 21 1023.8 1023.6 0.0

Latest Capital City Observations: Canberra | Sydney | Melbourne | Brisbane | Adelaide | Perth | Hobart | Darwin

Other formats

Comma delimited format used in spreadsheet applications
http://www.bom.gov.au/fwo/IDQ60901/IDQ60901.94584.axf

JavaScript Object Notation format (JSON) in row-major order
http://www.bom.gov.au/fwo/IDQ60901/IDQ60901.94584.json

Data quality

Most of these data are generated automatically and are frequently updated. Quality checks on data are not normally performed. It is possible for incorrect values to appear. Refer to information at About Latest Weather Observations and please check the disclaimer before using these data.